createdAt,value
2022-08-26T00:01:57.936Z,25.70
2022-08-26T00:04:26.059Z,25.70
2022-08-26T00:06:54.356Z,25.70
2022-08-26T00:09:21.474Z,25.70
2022-08-26T00:11:48.764Z,25.50
2022-08-26T00:14:16.546Z,25.40
2022-08-26T00:16:47.814Z,25.40
2022-08-26T00:19:20.190Z,25.40
2022-08-26T00:21:48.638Z,25.40
2022-08-26T00:24:16.048Z,25.40
2022-08-26T00:26:43.375Z,25.30
2022-08-26T00:29:10.361Z,25.30
2022-08-26T00:31:37.624Z,25.30
2022-08-26T00:34:05.810Z,25.30
2022-08-26T00:36:32.714Z,25.20
2022-08-26T00:38:59.733Z,25.10
2022-08-26T00:41:28.753Z,25.00
2022-08-26T00:43:55.740Z,25.10
2022-08-26T00:46:28.971Z,25.10
2022-08-26T00:49:01.777Z,25.10
2022-08-26T00:51:29.766Z,25.10
2022-08-26T00:54:10.643Z,25.20
2022-08-26T00:56:41.094Z,25.30
2022-08-26T00:59:09.753Z,25.30
2022-08-26T01:01:38.135Z,25.30
2022-08-26T01:04:06.060Z,25.30
2022-08-26T01:06:32.928Z,25.30
2022-08-26T01:09:00.203Z,25.30
2022-08-26T01:11:27.700Z,25.20
2022-08-26T01:13:59.348Z,25.30
2022-08-26T01:16:26.544Z,25.30
2022-08-26T01:18:56.556Z,25.30
2022-08-26T01:21:29.424Z,25.40
2022-08-26T01:23:57.943Z,25.40
2022-08-26T01:26:27.031Z,25.40
2022-08-26T01:28:56.418Z,25.40
2022-08-26T01:31:26.334Z,25.30
2022-08-26T01:34:10.967Z,25.40
2022-08-26T01:36:38.871Z,25.40
2022-08-26T01:39:07.255Z,25.40
2022-08-26T01:41:35.139Z,25.40
2022-08-26T01:44:02.957Z,25.40
2022-08-26T01:46:30.847Z,25.40
2022-08-26T01:48:59.865Z,25.30
2022-08-26T01:51:27.921Z,25.30
2022-08-26T01:53:54.800Z,25.30
2022-08-26T01:56:22.317Z,25.20
2022-08-26T01:58:54.124Z,25.20
2022-08-26T02:01:22.530Z,25.30
2022-08-26T02:04:03.292Z,25.20
2022-08-26T02:06:32.283Z,25.20
2022-08-26T02:09:00.995Z,25.10
2022-08-26T02:11:28.247Z,25.10
2022-08-26T02:13:58.297Z,25.00
2022-08-26T02:16:26.957Z,25.00
2022-08-26T02:18:56.506Z,25.10
2022-08-26T02:21:24.896Z,25.10
2022-08-26T02:23:52.468Z,25.10
2022-08-26T02:26:23.815Z,25.10
2022-08-26T02:29:02.791Z,25.10
2022-08-26T02:31:30.310Z,25.00
2022-08-26T02:34:07.190Z,25.00
2022-08-26T02:36:38.133Z,24.90
2022-08-26T02:39:06.944Z,24.90
2022-08-26T02:41:34.506Z,25.00
2022-08-26T02:44:01.706Z,25.00
2022-08-26T02:46:29.895Z,25.00
2022-08-26T02:48:57.657Z,25.10
2022-08-26T02:51:25.227Z,25.10
2022-08-26T02:53:52.105Z,25.00
2022-08-26T02:56:20.031Z,24.90
2022-08-26T02:58:46.947Z,24.90
2022-08-26T03:01:22.947Z,25.00
2022-08-26T03:03:49.925Z,24.90
2022-08-26T03:06:16.870Z,24.90
2022-08-26T03:08:44.014Z,24.90
2022-08-26T03:11:11.394Z,24.90
2022-08-26T03:13:38.872Z,24.90
2022-08-26T03:16:05.914Z,24.80
2022-08-26T03:18:32.863Z,24.80
2022-08-26T03:21:05.493Z,24.80
2022-08-26T03:23:32.777Z,24.80
2022-08-26T03:25:59.728Z,24.70
2022-08-26T03:28:27.071Z,24.70
2022-08-26T03:30:54.633Z,24.70
2022-08-26T03:33:22.414Z,24.70
2022-08-26T03:35:50.636Z,24.70
2022-08-26T03:38:18.782Z,24.70
2022-08-26T03:40:45.728Z,24.60
2022-08-26T03:43:12.865Z,24.70
2022-08-26T03:45:41.188Z,24.70
2022-08-26T03:48:09.932Z,24.70
2022-08-26T03:50:36.917Z,24.60
2022-08-26T03:53:04.231Z,24.60
2022-08-26T03:55:36.632Z,24.50
2022-08-26T03:58:04.420Z,24.50
2022-08-26T04:00:31.306Z,24.50
2022-08-26T04:02:58.277Z,24.50
2022-08-26T04:05:25.416Z,24.50
2022-08-26T04:07:52.326Z,24.50
2022-08-26T04:10:28.568Z,24.50
2022-08-26T04:12:55.702Z,24.50
2022-08-26T04:15:27.050Z,24.50
2022-08-26T04:17:54.026Z,24.40
2022-08-26T04:20:22.895Z,24.40
2022-08-26T04:22:50.817Z,24.30
2022-08-26T04:25:18.696Z,24.30
2022-08-26T04:27:47.427Z,24.30
2022-08-26T04:30:15.904Z,24.30
2022-08-26T04:32:43.796Z,24.30
2022-08-26T04:35:10.764Z,24.20
2022-08-26T04:37:37.837Z,24.10
2022-08-26T04:40:10.130Z,24.20
2022-08-26T04:42:37.288Z,24.10
2022-08-26T04:45:05.908Z,24.10
2022-08-26T04:47:37.798Z,24.10
2022-08-26T04:50:07.401Z,24.10
2022-08-26T04:52:35.584Z,24.20
2022-08-26T04:55:02.479Z,24.30
2022-08-26T04:57:29.468Z,24.30
2022-08-26T04:59:56.384Z,24.40
2022-08-26T05:02:23.505Z,24.40
2022-08-26T05:04:52.512Z,24.40
2022-08-26T05:07:19.629Z,24.30
2022-08-26T05:09:46.736Z,24.30
2022-08-26T05:12:13.700Z,24.30
2022-08-26T05:14:41.558Z,24.40
2022-08-26T05:17:08.640Z,24.40
2022-08-26T05:19:37.201Z,24.30
2022-08-26T05:22:09.639Z,24.40
2022-08-26T05:24:36.576Z,24.40
2022-08-26T05:27:11.472Z,24.40
2022-08-26T05:29:39.118Z,24.40
2022-08-26T05:32:06.145Z,24.40
2022-08-26T05:34:33.071Z,24.50
2022-08-26T05:37:00.051Z,24.50
2022-08-26T05:39:27.005Z,24.50
2022-08-26T05:41:54.024Z,24.50
2022-08-26T05:44:21.215Z,24.50
2022-08-26T05:46:49.666Z,24.60
2022-08-26T05:49:18.767Z,24.60
2022-08-26T05:51:47.795Z,24.60
2022-08-26T05:54:22.029Z,24.70
2022-08-26T05:56:52.127Z,24.70
2022-08-26T05:59:21.376Z,24.70
2022-08-26T06:01:51.989Z,24.70
2022-08-26T06:04:19.028Z,24.80
2022-08-26T06:06:47.097Z,24.80
2022-08-26T06:09:14.200Z,24.90
2022-08-26T06:11:44.522Z,24.90
2022-08-26T06:14:11.784Z,24.90
2022-08-26T06:16:40.949Z,24.90
2022-08-26T06:19:11.120Z,25.00
2022-08-26T06:21:40.065Z,25.00
2022-08-26T06:24:27.255Z,25.00
2022-08-26T06:27:02.273Z,25.10
2022-08-26T06:29:36.190Z,25.20
2022-08-26T06:32:06.042Z,25.20
2022-08-26T06:34:33.991Z,25.20
2022-08-26T06:37:03.278Z,25.30
2022-08-26T06:39:31.306Z,25.30
2022-08-26T06:41:59.185Z,25.30
2022-08-26T06:44:26.944Z,25.40
2022-08-26T06:46:53.919Z,25.40
2022-08-26T06:49:26.672Z,25.50
2022-08-26T06:51:58.712Z,25.50
2022-08-26T06:54:26.910Z,25.70
2022-08-26T06:56:53.998Z,25.70
2022-08-26T06:59:21.964Z,25.80
2022-08-26T07:01:49.800Z,25.90
2022-08-26T07:04:20.347Z,26.00
2022-08-26T07:06:53.226Z,26.10
2022-08-26T07:09:25.974Z,26.10
2022-08-26T07:11:53.240Z,26.20
2022-08-26T07:14:21.461Z,26.20
2022-08-26T07:16:49.269Z,26.30
2022-08-26T07:19:17.528Z,26.30
2022-08-26T07:21:57.923Z,26.30
2022-08-26T07:24:24.970Z,26.30
2022-08-26T07:27:03.010Z,26.40
2022-08-26T07:29:34.497Z,26.40
2022-08-26T07:32:01.766Z,26.50
2022-08-26T07:34:29.180Z,26.60
2022-08-26T07:36:57.154Z,26.60
2022-08-26T07:39:28.444Z,26.70
2022-08-26T07:41:59.358Z,26.90
2022-08-26T07:44:27.283Z,26.90
2022-08-26T07:46:54.311Z,27.00
2022-08-26T07:49:23.172Z,27.00
2022-08-26T07:51:51.146Z,27.10
2022-08-26T07:54:20.531Z,27.10
2022-08-26T07:56:53.819Z,27.10
2022-08-26T07:59:23.454Z,27.30
2022-08-26T08:01:50.734Z,27.30
2022-08-26T08:04:21.931Z,27.40
2022-08-26T08:06:55.636Z,27.40
2022-08-26T08:09:23.264Z,27.50
2022-08-26T08:11:51.827Z,27.60
2022-08-26T08:14:20.454Z,27.70
2022-08-26T08:16:51.110Z,27.80
2022-08-26T08:19:23.851Z,27.90
2022-08-26T08:21:50.896Z,28.10
2022-08-26T08:24:18.710Z,28.20
2022-08-26T08:26:46.150Z,28.20
2022-08-26T08:29:13.554Z,28.30
2022-08-26T08:31:58.461Z,28.40
2022-08-26T08:34:27.699Z,28.50
2022-08-26T08:36:54.671Z,28.60
2022-08-26T08:39:22.203Z,28.70
2022-08-26T08:41:56.466Z,28.70
2022-08-26T08:47:00.968Z,28.80
2022-08-26T08:49:29.309Z,29.10
2022-08-26T08:51:59.466Z,29.20
2022-08-26T08:54:26.959Z,29.20
2022-08-26T08:56:59.919Z,29.30
2022-08-26T08:59:31.487Z,29.40
2022-08-26T09:02:18.430Z,29.70
2022-08-26T09:04:48.412Z,29.70
2022-08-26T09:07:36.304Z,29.80
2022-08-26T09:10:19.076Z,29.70
2022-08-26T09:12:47.635Z,29.90
2022-08-26T09:15:14.558Z,29.80
2022-08-26T09:17:50.939Z,30.10
2022-08-26T09:20:20.687Z,30.20
2022-08-26T09:22:47.742Z,30.30
2022-08-26T09:25:16.056Z,30.40
2022-08-26T09:27:47.576Z,30.40
2022-08-26T09:30:24.887Z,30.40
2022-08-26T09:33:10.073Z,30.50
2022-08-26T09:35:38.790Z,30.70
2022-08-26T09:38:26.565Z,30.80
2022-08-26T09:41:01.442Z,30.90
2022-08-26T09:43:29.337Z,30.90
2022-08-26T09:46:10.396Z,31.10
2022-08-26T09:48:40.551Z,31.30
2022-08-26T09:51:20.247Z,31.40
2022-08-26T09:53:54.754Z,31.60
2022-08-26T09:56:21.755Z,31.40
2022-08-26T09:58:50.456Z,31.50
2022-08-26T10:01:23.760Z,31.50
2022-08-26T10:03:51.529Z,31.70
2022-08-26T10:06:21.186Z,31.70
2022-08-26T10:09:04.544Z,31.60
2022-08-26T10:11:45.317Z,31.50
2022-08-26T10:14:17.685Z,31.60
2022-08-26T10:17:07.103Z,31.70
2022-08-26T10:19:57.102Z,31.80
2022-08-26T10:22:27.521Z,31.90
2022-08-26T10:24:56.206Z,31.90
2022-08-26T10:27:25.730Z,32.10
2022-08-26T10:29:56.856Z,32.10
2022-08-26T10:32:31.376Z,32.10
2022-08-26T10:34:58.343Z,32.30
2022-08-26T10:37:31.236Z,32.20
2022-08-26T10:40:12.505Z,32.30
2022-08-26T10:42:46.764Z,32.50
2022-08-26T10:45:15.533Z,32.40
2022-08-26T10:47:45.495Z,32.60
2022-08-26T10:50:18.143Z,32.70
2022-08-26T12:17:50.483Z,34.00
2022-08-26T12:37:13.424Z,34.60
2022-08-26T12:39:47.950Z,34.90
2022-08-26T12:42:44.925Z,35.10
2022-08-26T12:45:27.550Z,35.10
2022-08-26T12:48:13.446Z,35.20
2022-08-26T12:51:25.895Z,35.50
2022-08-26T12:54:06.822Z,35.40
2022-08-26T13:00:28.314Z,35.50
2022-08-26T13:03:08.163Z,35.30
2022-08-26T13:05:38.988Z,35.30
2022-08-26T13:11:30.289Z,35.20
2022-08-26T13:17:15.937Z,35.10
2022-08-26T13:20:14.451Z,35.10
2022-08-26T13:23:16.035Z,35.00
2022-08-26T13:32:51.680Z,35.10
2022-08-26T13:39:34.788Z,35.00
2022-08-26T13:42:14.273Z,34.90
2022-08-26T13:48:55.819Z,34.90
2022-08-26T13:51:23.560Z,34.90
2022-08-26T13:57:24.585Z,35.10
2022-08-26T14:00:26.370Z,35.20
2022-08-26T14:03:11.338Z,35.00
2022-08-26T14:05:59.238Z,34.70
2022-08-26T14:12:11.718Z,34.60
2022-08-26T14:14:49.647Z,34.90
2022-08-26T14:17:32.693Z,35.00
2022-08-26T14:20:38.195Z,34.60
2022-08-26T14:23:16.986Z,34.60
2022-08-26T14:25:49.057Z,34.70
2022-08-26T14:55:43.956Z,35.40
2022-08-26T15:01:30.960Z,35.90
2022-08-26T15:25:39.265Z,36.70
2022-08-26T15:32:11.050Z,37.10
2022-08-26T15:35:08.846Z,37.60
2022-08-26T15:37:43.949Z,37.90
2022-08-26T15:44:17.702Z,38.20
2022-08-26T15:47:04.933Z,38.20
2022-08-26T15:49:59.875Z,38.10
2022-08-26T15:53:16.356Z,37.90
2022-08-26T15:58:59.344Z,37.80
2022-08-26T16:08:12.909Z,36.50
2022-08-26T16:23:15.231Z,33.30
2022-08-26T16:25:49.470Z,32.90
2022-08-26T16:35:13.834Z,32.40
2022-08-26T16:37:42.619Z,32.20
2022-08-26T16:40:28.218Z,32.10
2022-08-26T16:42:56.985Z,32.00
2022-08-26T16:48:43.396Z,31.80
2022-08-26T16:51:22.633Z,31.60
2022-08-26T16:54:19.765Z,31.50
2022-08-26T16:59:44.823Z,31.40
2022-08-26T17:02:16.526Z,31.40
2022-08-26T17:05:02.592Z,31.40
2022-08-26T17:07:44.546Z,31.30
2022-08-26T17:16:07.878Z,31.10
2022-08-26T17:19:16.361Z,31.00
2022-08-26T17:22:09.550Z,31.00
2022-08-26T17:24:47.648Z,30.90
2022-08-26T17:27:36.415Z,30.80
2022-08-26T17:30:17.553Z,30.70
2022-08-26T17:32:51.771Z,30.70
2022-08-26T17:35:23.429Z,30.70
2022-08-26T17:37:57.411Z,30.70
2022-08-26T17:40:26.234Z,30.60
2022-08-26T17:42:56.797Z,30.50
2022-08-26T17:45:26.244Z,30.40
2022-08-26T17:47:58.500Z,30.20
2022-08-26T17:50:45.553Z,30.10
2022-08-26T17:53:18.826Z,30.00
2022-08-26T17:55:50.468Z,29.90
2022-08-26T17:58:23.427Z,29.80
2022-08-26T18:00:55.487Z,29.70
2022-08-26T18:03:23.624Z,29.60
2022-08-26T18:05:51.682Z,29.40
2022-08-26T18:08:19.515Z,29.30
2022-08-26T18:10:48.552Z,29.30
2022-08-26T18:13:15.948Z,29.20
2022-08-26T18:15:44.864Z,29.20
2022-08-26T18:18:18.191Z,29.00
2022-08-26T18:20:45.706Z,29.00
2022-08-26T18:23:24.574Z,29.00
2022-08-26T18:25:54.503Z,29.00
2022-08-26T18:28:22.257Z,28.90
2022-08-26T18:30:49.739Z,28.90
2022-08-26T18:33:18.098Z,28.80
2022-08-26T18:35:52.261Z,28.70
2022-08-26T18:38:21.779Z,28.70
2022-08-26T18:41:07.875Z,28.60
2022-08-26T18:43:36.702Z,28.50
2022-08-26T18:46:09.416Z,28.50
2022-08-26T18:48:53.097Z,28.50
2022-08-26T18:51:23.013Z,28.50
2022-08-26T18:54:46.265Z,28.40
2022-08-26T18:57:26.144Z,28.40
2022-08-26T18:59:56.502Z,28.40
2022-08-26T19:02:28.105Z,28.30
2022-08-26T19:05:01.250Z,28.20
2022-08-26T19:07:31.225Z,28.10
2022-08-26T19:09:58.281Z,28.10
2022-08-26T19:12:27.107Z,28.10
2022-08-26T19:14:54.442Z,28.10
2022-08-26T19:17:22.544Z,28.00
2022-08-26T19:19:51.190Z,28.00
2022-08-26T19:22:20.173Z,27.90
2022-08-26T19:24:47.800Z,27.90
2022-08-26T19:27:29.111Z,28.00
2022-08-26T19:29:58.144Z,27.90
2022-08-26T19:33:14.370Z,27.90
2022-08-26T19:35:44.426Z,27.90
2022-08-26T19:38:12.189Z,27.80
2022-08-26T19:40:41.256Z,27.80
2022-08-26T19:43:11.998Z,27.70
2022-08-26T19:45:41.520Z,27.70
2022-08-26T19:48:08.991Z,27.70
2022-08-26T19:50:38.699Z,27.70
2022-08-26T19:53:06.957Z,27.70
2022-08-26T19:55:35.686Z,27.70
2022-08-26T19:58:05.289Z,27.60
2022-08-26T20:00:33.643Z,27.60
2022-08-26T20:03:05.446Z,27.60
2022-08-26T20:05:37.186Z,27.60
2022-08-26T20:08:08.101Z,27.60
2022-08-26T20:10:49.649Z,27.50
2022-08-26T20:13:18.825Z,27.50
2022-08-26T20:15:46.143Z,27.50
2022-08-26T20:18:31.870Z,27.40
2022-08-26T20:21:27.189Z,27.40
2022-08-26T20:24:03.536Z,27.40
2022-08-26T20:29:55.826Z,27.30
2022-08-26T20:32:27.231Z,27.40
2022-08-26T20:35:04.131Z,27.40
2022-08-26T20:37:31.558Z,27.40
2022-08-26T20:40:20.767Z,27.40
2022-08-26T20:42:52.795Z,27.30
2022-08-26T20:45:21.215Z,27.30
2022-08-26T20:47:50.877Z,27.20
2022-08-26T20:50:22.066Z,27.10
2022-08-26T20:52:49.398Z,27.20
2022-08-26T20:55:25.747Z,27.20
2022-08-26T20:57:53.452Z,27.10
2022-08-26T21:00:26.417Z,27.10
2022-08-26T21:02:59.446Z,27.10
2022-08-26T21:05:30.312Z,27.00
2022-08-26T21:08:00.305Z,27.00
2022-08-26T21:10:33.229Z,27.00
2022-08-26T21:13:02.666Z,27.00
2022-08-26T21:15:32.320Z,27.00
2022-08-26T21:17:59.735Z,27.10
2022-08-26T21:20:27.541Z,27.00
2022-08-26T21:22:55.137Z,27.00
2022-08-26T21:25:23.946Z,27.00
2022-08-26T21:27:54.853Z,27.00
2022-08-26T21:30:27.263Z,27.00
2022-08-26T21:32:54.863Z,26.90
2022-08-26T21:35:24.282Z,26.90
2022-08-26T21:37:51.423Z,26.90
2022-08-26T21:40:21.344Z,26.90
2022-08-26T21:42:48.459Z,26.90
2022-08-26T21:45:15.481Z,26.90
2022-08-26T21:47:42.594Z,26.90
2022-08-26T21:50:10.784Z,26.80
2022-08-26T21:52:38.542Z,26.70
2022-08-26T21:55:09.048Z,26.80
2022-08-26T21:57:39.037Z,26.70
2022-08-26T22:00:08.846Z,26.70
2022-08-26T22:02:40.862Z,26.70
2022-08-26T22:05:10.847Z,26.60
2022-08-26T22:07:41.592Z,26.60
2022-08-26T22:10:18.606Z,26.50
2022-08-26T22:12:48.784Z,26.50
2022-08-26T22:15:16.072Z,26.50
2022-08-26T22:17:44.147Z,26.40
2022-08-26T22:20:16.540Z,26.40
2022-08-26T22:22:50.728Z,26.30
2022-08-26T22:25:17.880Z,26.40
2022-08-26T22:27:54.504Z,26.50
2022-08-26T22:30:29.884Z,26.50
2022-08-26T22:32:59.623Z,26.50
2022-08-26T22:35:32.062Z,26.50
2022-08-26T22:38:25.140Z,26.50
2022-08-26T22:40:56.999Z,26.40
2022-08-26T22:43:25.674Z,26.50
2022-08-26T22:45:53.439Z,26.40
2022-08-26T22:48:23.103Z,26.40
2022-08-26T22:50:51.065Z,26.40
2022-08-26T22:53:19.269Z,26.30
2022-08-26T22:55:46.518Z,26.30
2022-08-26T22:58:16.103Z,26.40
2022-08-26T23:00:45.351Z,26.40
2022-08-26T23:03:13.136Z,26.40
2022-08-26T23:05:41.522Z,26.30
2022-08-26T23:08:09.898Z,26.30
2022-08-26T23:10:42.778Z,26.20
2022-08-26T23:13:12.923Z,26.10
2022-08-26T23:15:42.333Z,26.10
2022-08-26T23:18:10.819Z,26.20
2022-08-26T23:20:51.915Z,26.10
2022-08-26T23:23:20.322Z,26.10
2022-08-26T23:25:48.846Z,26.10
2022-08-26T23:28:17.643Z,26.10
2022-08-26T23:30:47.865Z,26.10
2022-08-26T23:33:18.245Z,26.10
2022-08-26T23:35:45.807Z,26.10
2022-08-26T23:38:14.350Z,26.10
2022-08-26T23:40:42.077Z,26.10
2022-08-26T23:43:12.151Z,26.00
2022-08-26T23:45:41.490Z,26.10
2022-08-26T23:48:09.651Z,26.00
2022-08-26T23:50:55.441Z,26.00
2022-08-26T23:53:24.407Z,25.90
2022-08-26T23:55:54.820Z,25.80
2022-08-26T23:58:22.408Z,25.70
